createdAt,value
2023-01-08T00:00:16.784Z,89.00
2023-01-08T00:01:17.680Z,89.00
2023-01-08T00:02:18.551Z,88.89
2023-01-08T00:03:19.574Z,88.68
2023-01-08T00:04:19.956Z,88.51
2023-01-08T00:05:20.838Z,88.16
2023-01-08T00:06:21.859Z,88.09
2023-01-08T00:07:22.676Z,87.88
2023-01-08T00:08:23.560Z,87.57
2023-01-08T00:09:24.448Z,87.46
2023-01-08T00:10:25.418Z,87.46
2023-01-08T00:11:26.319Z,87.57
2023-01-08T00:12:27.185Z,87.57
2023-01-08T00:13:28.100Z,87.46
2023-01-08T00:14:28.951Z,87.46
2023-01-08T00:15:29.832Z,87.50
2023-01-08T00:16:30.724Z,87.60
2023-01-08T00:17:31.599Z,87.19
2023-01-08T00:18:32.482Z,87.19
2023-01-08T00:19:33.365Z,87.71
2023-01-08T00:20:34.246Z,88.13
2023-01-08T00:21:35.248Z,88.34
2023-01-08T00:22:36.090Z,88.66
2023-01-08T00:23:36.979Z,89.18
2023-01-08T00:24:37.842Z,89.29
2023-01-08T00:25:38.743Z,89.50
2023-01-08T00:26:39.655Z,90.02
2023-01-08T00:27:40.584Z,90.23
2023-01-08T00:28:41.480Z,90.12
2023-01-08T00:29:42.034Z,90.12
2023-01-08T00:30:42.965Z,90.02
2023-01-08T00:31:43.822Z,89.60
2023-01-08T00:32:44.747Z,89.39
2023-01-08T00:33:45.597Z,88.82
2023-01-08T00:34:46.470Z,88.20
2023-01-08T00:35:47.353Z,88.13
2023-01-08T00:36:48.356Z,88.02
2023-01-08T00:37:49.180Z,88.34
2023-01-08T00:38:50.059Z,88.45
2023-01-08T00:39:50.944Z,88.24
2023-01-08T00:40:51.829Z,88.76
2023-01-08T00:41:52.720Z,88.66
2023-01-08T00:42:53.614Z,88.45
2023-01-08T00:43:54.489Z,88.70
2023-01-08T00:44:55.368Z,88.80
2023-01-08T00:45:56.280Z,89.01
2023-01-08T00:46:57.137Z,88.91
2023-01-08T00:47:58.019Z,88.70
2023-01-08T00:48:58.911Z,88.70
2023-01-08T00:49:59.783Z,88.49
2023-01-08T00:51:00.665Z,88.38
2023-01-08T00:52:01.667Z,88.17
2023-01-08T00:53:02.516Z,88.07
2023-01-08T00:54:03.389Z,87.75
2023-01-08T00:55:04.262Z,87.85
2023-01-08T00:56:05.147Z,88.17
2023-01-08T00:57:06.026Z,88.49
2023-01-08T00:58:06.929Z,88.49
2023-01-08T00:59:07.834Z,89.12
2023-01-08T01:00:08.746Z,89.43
2023-01-08T01:01:09.804Z,89.96
2023-01-08T01:02:10.372Z,90.17
2023-01-08T01:03:10.784Z,90.38
2023-01-08T01:04:11.759Z,90.69
2023-01-08T01:05:12.604Z,91.11
2023-01-08T01:06:13.524Z,90.91
2023-01-08T01:07:14.512Z,90.91
2023-01-08T01:08:15.341Z,91.01
2023-01-08T01:09:16.233Z,90.80
2023-01-08T01:10:17.105Z,90.59
2023-01-08T01:11:17.987Z,90.48
2023-01-08T01:12:18.882Z,90.23
2023-01-08T01:13:19.816Z,89.92
2023-01-08T01:14:20.692Z,88.97
2023-01-08T01:15:21.574Z,88.55
2023-01-08T01:16:22.524Z,88.70
2023-01-08T01:17:23.388Z,88.80
2023-01-08T01:18:24.291Z,88.28
2023-01-08T01:19:25.182Z,87.96
2023-01-08T01:20:26.058Z,87.96
2023-01-08T01:21:26.938Z,87.65
2023-01-08T01:22:27.927Z,87.44
2023-01-08T01:23:28.751Z,87.90
2023-01-08T01:24:29.632Z,88.10
2023-01-08T01:25:30.513Z,88.32
2023-01-08T01:26:31.387Z,88.95
2023-01-08T01:27:32.279Z,89.47
2023-01-08T01:28:33.163Z,89.58
2023-01-08T01:29:34.045Z,90.00
2023-01-08T01:30:34.956Z,90.21
2023-01-08T01:31:35.799Z,90.31
2023-01-08T01:32:36.680Z,90.31
2023-01-08T01:33:37.583Z,90.27
2023-01-08T01:34:38.454Z,90.06
2023-01-08T01:35:39.345Z,89.86
2023-01-08T01:36:40.263Z,89.86
2023-01-08T01:37:41.219Z,89.96
2023-01-08T01:38:42.050Z,89.64
2023-01-08T01:39:42.929Z,88.70
2023-01-08T01:40:43.808Z,88.28
2023-01-08T01:41:44.695Z,87.85
2023-01-08T01:42:45.576Z,87.54
2023-01-08T01:43:46.467Z,87.54
2023-01-08T01:44:47.353Z,87.54
2023-01-08T01:45:48.269Z,87.37
2023-01-08T01:46:49.110Z,87.37
2023-01-08T01:47:49.982Z,87.37
2023-01-08T01:48:50.930Z,87.52
2023-01-08T01:49:51.758Z,87.73
2023-01-08T01:50:52.632Z,88.04
2023-01-08T01:51:53.513Z,88.46
2023-01-08T01:52:54.412Z,88.78
2023-01-08T01:53:55.282Z,88.99
2023-01-08T01:54:56.152Z,89.51
2023-01-08T01:55:57.033Z,89.51
2023-01-08T01:56:57.917Z,90.56
2023-01-08T01:57:58.798Z,91.20
2023-01-08T01:58:59.715Z,91.41
2023-01-08T02:00:00.590Z,91.62
2023-01-08T02:01:01.530Z,91.93
2023-01-08T02:02:02.610Z,91.78
2023-01-08T02:03:02.976Z,91.36
2023-01-08T02:04:03.940Z,90.94
2023-01-08T02:05:04.789Z,90.53
2023-01-08T02:06:05.664Z,90.21
2023-01-08T02:07:06.537Z,89.69
2023-01-08T02:08:07.543Z,89.16
2023-01-08T02:09:08.373Z,88.84
2023-01-08T02:10:09.264Z,88.63
2023-01-08T02:11:10.156Z,88.53
2023-01-08T02:12:11.018Z,88.42
2023-01-08T02:13:11.893Z,88.32
2023-01-08T02:14:12.784Z,87.68
2023-01-08T02:15:13.666Z,87.37
2023-01-08T02:16:14.663Z,87.68
2023-01-08T02:17:15.484Z,88.46
2023-01-08T02:18:16.366Z,88.99
2023-01-08T02:19:17.262Z,89.41
2023-01-08T02:20:18.142Z,89.72
2023-01-08T02:21:19.018Z,89.94
2023-01-08T02:22:19.898Z,90.11
2023-01-08T02:23:20.977Z,90.21
2023-01-08T02:24:21.295Z,90.00
2023-01-08T02:25:22.178Z,90.00
2023-01-08T02:26:23.070Z,90.11
2023-01-08T02:27:23.936Z,90.00
2023-01-08T02:28:24.818Z,89.69
2023-01-08T02:29:25.706Z,89.58
2023-01-08T02:30:26.594Z,89.37
2023-01-08T02:31:27.472Z,88.95
2023-01-08T02:32:28.363Z,88.74
2023-01-08T02:33:29.236Z,88.74
2023-01-08T02:34:30.129Z,88.78
2023-01-08T02:35:31.002Z,88.78
2023-01-08T02:36:31.898Z,89.20
2023-01-08T02:37:32.760Z,89.62
2023-01-08T02:38:33.659Z,89.62
2023-01-08T02:39:34.524Z,90.14
2023-01-08T02:40:35.414Z,90.46
2023-01-08T02:41:36.277Z,90.78
2023-01-08T02:42:37.165Z,90.63
2023-01-08T02:43:38.033Z,90.42
2023-01-08T02:44:38.922Z,90.53
2023-01-08T02:45:39.856Z,90.53
2023-01-08T02:46:40.745Z,90.31
2023-01-08T02:47:41.627Z,90.11
2023-01-08T02:48:42.496Z,90.11
2023-01-08T02:49:43.389Z,89.79
2023-01-08T02:50:44.283Z,89.47
2023-01-08T02:51:45.144Z,89.37
2023-01-08T02:52:46.051Z,89.05
2023-01-08T02:53:47.021Z,88.74
2023-01-08T02:54:47.852Z,88.10
2023-01-08T02:55:48.746Z,87.68
2023-01-08T02:56:49.623Z,87.58
2023-01-08T02:57:50.508Z,87.68
2023-01-08T02:58:51.389Z,88.15
2023-01-08T02:59:52.283Z,88.35
2023-01-08T03:00:53.165Z,88.89
2023-01-08T03:01:54.281Z,88.99
2023-01-08T03:02:54.738Z,88.99
2023-01-08T03:03:55.661Z,89.20
2023-01-08T03:04:56.528Z,89.30
2023-01-08T03:05:57.396Z,89.41
2023-01-08T03:06:58.282Z,89.41
2023-01-08T03:07:59.173Z,89.30
2023-01-08T03:09:00.158Z,89.41
2023-01-08T03:10:01.000Z,89.51
2023-01-08T03:11:01.856Z,89.30
2023-01-08T03:12:02.730Z,89.09
2023-01-08T03:13:03.622Z,89.03
2023-01-08T03:14:04.491Z,89.34
2023-01-08T03:15:05.375Z,89.87
2023-01-08T03:16:06.250Z,90.46
2023-01-08T03:17:07.137Z,90.50
2023-01-08T03:18:08.020Z,90.36
2023-01-08T03:19:08.896Z,90.78
2023-01-08T03:20:09.816Z,91.09
2023-01-08T03:21:10.697Z,90.88
2023-01-08T03:22:11.604Z,90.56
2023-01-08T03:23:12.507Z,90.14
2023-01-08T03:24:13.493Z,90.04
2023-01-08T03:25:14.322Z,90.08
2023-01-08T03:26:15.212Z,90.19
2023-01-08T03:27:16.118Z,90.29
2023-01-08T03:28:16.999Z,90.14
2023-01-08T03:29:17.886Z,89.87
2023-01-08T03:30:18.785Z,89.66
2023-01-08T03:31:19.829Z,89.76
2023-01-08T03:32:20.217Z,89.76
2023-01-08T03:33:21.103Z,89.87
2023-01-08T03:34:21.974Z,90.08
2023-01-08T03:35:22.875Z,90.40
2023-01-08T03:36:23.746Z,90.55
2023-01-08T03:37:24.621Z,90.61
2023-01-08T03:38:25.504Z,90.82
2023-01-08T03:39:26.510Z,91.03
2023-01-08T03:40:27.326Z,91.03
2023-01-08T03:41:28.207Z,90.92
2023-01-08T03:42:29.082Z,90.50
2023-01-08T03:43:29.963Z,90.08
2023-01-08T03:44:30.841Z,89.98
2023-01-08T03:45:31.739Z,90.29
2023-01-08T03:46:32.711Z,90.29
2023-01-08T03:47:33.144Z,90.08
2023-01-08T03:48:34.024Z,90.19
2023-01-08T03:49:34.898Z,90.29
2023-01-08T03:50:35.788Z,90.40
2023-01-08T03:51:36.669Z,90.65
2023-01-08T03:52:37.556Z,90.82
2023-01-08T03:53:38.436Z,91.03
2023-01-08T03:54:39.424Z,90.71
2023-01-08T03:55:40.252Z,90.50
2023-01-08T03:56:41.141Z,90.61
2023-01-08T03:57:42.015Z,90.44
2023-01-08T03:58:42.896Z,90.44
2023-01-08T03:59:43.773Z,90.55
2023-01-08T04:00:44.655Z,90.75
2023-01-08T04:01:45.744Z,90.86
2023-01-08T04:02:46.128Z,90.86
2023-01-08T04:03:47.013Z,90.55
2023-01-08T04:04:47.905Z,89.91
2023-01-08T04:05:48.802Z,89.70
2023-01-08T04:06:49.684Z,89.49
2023-01-08T04:07:50.550Z,89.49
2023-01-08T04:08:51.446Z,89.59
2023-01-08T04:09:52.427Z,89.39
2023-01-08T04:10:53.259Z,89.28
2023-01-08T04:11:54.140Z,89.28
2023-01-08T04:12:55.021Z,89.28
2023-01-08T04:13:55.909Z,89.64
2023-01-08T04:14:56.788Z,90.26
2023-01-08T04:15:57.741Z,90.80
2023-01-08T04:16:58.569Z,91.11
2023-01-08T04:17:59.454Z,91.42
2023-01-08T04:19:00.340Z,91.81
2023-01-08T04:20:01.219Z,91.91
2023-01-08T04:21:02.109Z,92.02
2023-01-08T04:22:02.999Z,92.54
2023-01-08T04:23:03.880Z,92.65
2023-01-08T04:24:04.752Z,92.54
2023-01-08T04:25:05.759Z,92.33
2023-01-08T04:26:06.586Z,91.60
2023-01-08T04:27:07.470Z,91.39
2023-01-08T04:28:08.353Z,91.13
2023-01-08T04:29:09.232Z,90.86
2023-01-08T04:30:10.129Z,90.44
2023-01-08T04:31:11.046Z,90.29
2023-01-08T04:32:11.881Z,90.01
2023-01-08T04:33:12.759Z,90.01
2023-01-08T04:34:13.643Z,90.12
2023-01-08T04:35:14.525Z,90.23
2023-01-08T04:36:15.407Z,90.33
2023-01-08T04:37:16.292Z,90.44
2023-01-08T04:38:17.220Z,90.97
2023-01-08T04:39:18.065Z,91.17
2023-01-08T04:40:19.076Z,91.07
2023-01-08T04:41:19.921Z,91.07
2023-01-08T04:42:20.810Z,91.17
2023-01-08T04:43:21.687Z,91.07
2023-01-08T04:44:22.560Z,91.07
2023-01-08T04:45:23.436Z,90.97
2023-01-08T04:46:24.372Z,90.75
2023-01-08T04:47:25.237Z,90.44
2023-01-08T04:48:26.117Z,90.44
2023-01-08T04:49:27.000Z,90.97
2023-01-08T04:50:27.888Z,91.70
2023-01-08T04:51:28.778Z,92.02
2023-01-08T04:52:29.644Z,92.23
2023-01-08T04:53:30.525Z,92.33
2023-01-08T04:54:31.403Z,92.44
2023-01-08T04:55:32.401Z,91.91
2023-01-08T04:56:33.228Z,91.17
2023-01-08T04:57:34.108Z,90.23
2023-01-08T04:58:34.974Z,89.28
2023-01-08T04:59:35.855Z,88.54
2023-01-08T05:00:36.741Z,88.23
2023-01-08T05:01:37.772Z,88.54
2023-01-08T05:02:38.411Z,89.17
2023-01-08T05:03:38.833Z,89.39
2023-01-08T05:04:39.730Z,89.59
2023-01-08T05:05:40.587Z,89.32
2023-01-08T05:06:41.470Z,89.42
2023-01-08T05:07:42.351Z,89.95
2023-01-08T05:08:43.225Z,90.37
2023-01-08T05:09:44.110Z,90.37
2023-01-08T05:10:45.120Z,90.06
2023-01-08T05:11:45.941Z,90.06
2023-01-08T05:12:46.821Z,89.95
2023-01-08T05:13:47.702Z,89.74
2023-01-08T05:14:48.583Z,89.64
2023-01-08T05:15:49.483Z,89.64
2023-01-08T05:16:50.351Z,89.74
2023-01-08T05:17:51.235Z,89.84
2023-01-08T05:18:52.134Z,90.16
2023-01-08T05:19:52.995Z,90.37
2023-01-08T05:20:53.866Z,90.80
2023-01-08T05:21:54.755Z,91.22
2023-01-08T05:22:55.629Z,91.22
2023-01-08T05:23:56.521Z,91.11
2023-01-08T05:24:57.381Z,90.80
2023-01-08T05:25:58.398Z,90.69
2023-01-08T05:26:59.224Z,90.90
2023-01-08T05:28:00.113Z,90.69
2023-01-08T05:29:00.990Z,90.69
2023-01-08T05:30:01.873Z,90.80
2023-01-08T05:31:02.838Z,90.80
2023-01-08T05:32:03.709Z,90.80
2023-01-08T05:33:04.582Z,91.11
2023-01-08T05:34:05.462Z,91.22
2023-01-08T05:35:06.345Z,91.53
2023-01-08T05:36:07.227Z,91.70
2023-01-08T05:37:08.122Z,92.02
2023-01-08T05:38:09.018Z,92.12
2023-01-08T05:39:09.925Z,92.12
2023-01-08T05:40:10.834Z,91.70
2023-01-08T05:41:11.852Z,91.49
2023-01-08T05:42:12.678Z,91.03
2023-01-08T05:43:13.571Z,90.71
2023-01-08T05:44:14.435Z,90.50
2023-01-08T05:45:14.972Z,90.29
2023-01-08T05:46:15.932Z,90.08
2023-01-08T05:47:16.813Z,90.08
2023-01-08T05:48:17.695Z,90.61
2023-01-08T05:49:18.581Z,90.92
2023-01-08T05:50:19.470Z,91.03
2023-01-08T05:51:20.340Z,91.13
2023-01-08T05:52:21.225Z,91.24
2023-01-08T05:53:22.118Z,91.35
2023-01-08T05:54:22.980Z,91.13
2023-01-08T05:55:23.864Z,90.88
2023-01-08T05:56:24.860Z,90.56
2023-01-08T05:57:25.674Z,90.67
2023-01-08T05:58:26.565Z,90.67
2023-01-08T05:59:27.442Z,90.56
2023-01-08T06:00:28.324Z,90.56
2023-01-08T06:01:29.309Z,90.25
2023-01-08T06:02:30.178Z,89.94
2023-01-08T06:03:31.035Z,89.83
2023-01-08T06:04:32.024Z,89.47
2023-01-08T06:05:32.847Z,89.47
2023-01-08T06:06:33.732Z,89.47
2023-01-08T06:07:34.611Z,89.16
2023-01-08T06:08:35.491Z,89.16
2023-01-08T06:09:36.383Z,89.26
2023-01-08T06:10:37.272Z,89.16
2023-01-08T06:11:38.260Z,89.26
2023-01-08T06:12:39.083Z,89.26
2023-01-08T06:13:39.957Z,89.16
2023-01-08T06:14:40.858Z,88.91
2023-01-08T06:15:41.768Z,88.80
2023-01-08T06:16:42.653Z,88.59
2023-01-08T06:17:43.555Z,88.38
2023-01-08T06:18:44.457Z,88.28
2023-01-08T06:19:45.362Z,88.17
2023-01-08T06:20:46.272Z,88.17
2023-01-08T06:21:47.164Z,88.17
2023-01-08T06:22:48.087Z,88.17
2023-01-08T06:23:48.965Z,88.17
2023-01-08T06:24:49.843Z,88.38
2023-01-08T06:25:50.721Z,88.28
2023-01-08T06:26:51.722Z,88.07
2023-01-08T06:27:52.566Z,87.75
2023-01-08T06:28:53.441Z,87.75
2023-01-08T06:29:54.304Z,87.96
2023-01-08T06:30:55.224Z,87.92
2023-01-08T06:31:56.068Z,87.75
2023-01-08T06:32:56.964Z,87.65
2023-01-08T06:33:57.850Z,87.54
2023-01-08T06:34:58.719Z,87.75
2023-01-08T06:35:59.601Z,87.75
2023-01-08T06:37:00.491Z,87.82
2023-01-08T06:38:01.370Z,88.17
2023-01-08T06:39:02.255Z,87.96
2023-01-08T06:40:03.081Z,87.82
2023-01-08T06:41:03.911Z,87.82
2023-01-08T06:42:04.799Z,87.92
2023-01-08T06:43:05.674Z,88.02
2023-01-08T06:44:06.512Z,88.24
2023-01-08T06:45:07.348Z,88.34
2023-01-08T06:46:08.281Z,88.09
2023-01-08T06:47:09.067Z,87.88
2023-01-08T06:48:09.919Z,87.77
2023-01-08T06:49:10.721Z,87.88
2023-01-08T06:50:11.544Z,87.57
2023-01-08T06:51:12.372Z,87.15
2023-01-08T06:52:13.205Z,87.25
2023-01-08T06:53:14.037Z,87.25
2023-01-08T06:54:14.877Z,87.25
2023-01-08T06:55:15.692Z,87.15
2023-01-08T06:56:16.533Z,87.04
2023-01-08T06:57:17.488Z,87.15
2023-01-08T06:58:18.271Z,87.15
2023-01-08T06:59:19.117Z,87.04
2023-01-08T07:00:19.920Z,86.58
2023-01-08T07:01:20.957Z,86.58
2023-01-08T07:02:23.987Z,86.79
2023-01-08T07:03:22.209Z,86.69
2023-01-08T07:04:23.022Z,86.27
2023-01-08T07:05:23.867Z,85.91
2023-01-08T07:06:24.669Z,86.23
2023-01-08T07:07:25.500Z,86.12
2023-01-08T07:08:26.341Z,85.60
2023-01-08T07:09:27.167Z,85.39
2023-01-08T07:10:27.992Z,85.39
2023-01-08T07:11:28.821Z,85.49
2023-01-08T07:12:29.761Z,85.28
2023-01-08T07:13:30.530Z,85.28
2023-01-08T07:14:31.350Z,85.49
2023-01-08T07:15:32.173Z,85.49
2023-01-08T07:16:32.993Z,85.60
2023-01-08T07:17:33.821Z,85.60
2023-01-08T07:18:34.658Z,85.49
2023-01-08T07:19:35.511Z,85.60
2023-01-08T07:20:36.301Z,85.49
2023-01-08T07:21:37.124Z,85.60
2023-01-08T07:22:37.943Z,84.51
2023-01-08T07:23:38.779Z,84.30
2023-01-08T07:24:39.621Z,84.05
2023-01-08T07:25:40.449Z,83.74
2023-01-08T07:26:41.296Z,82.34
2023-01-08T07:27:42.242Z,81.46
2023-01-08T07:28:43.014Z,81.22
2023-01-08T07:29:43.842Z,81.43
2023-01-08T07:30:44.705Z,80.66
2023-01-08T07:31:45.564Z,79.40
2023-01-08T07:32:46.371Z,79.16
2023-01-08T07:33:47.209Z,78.95
2023-01-08T07:34:48.055Z,78.70
2023-01-08T07:35:48.863Z,78.28
2023-01-08T07:36:49.717Z,78.18
2023-01-08T07:37:50.520Z,78.18
2023-01-08T07:38:51.348Z,77.97
2023-01-08T07:39:52.176Z,78.35
2023-01-08T07:40:52.995Z,78.91
2023-01-08T07:41:53.827Z,79.33
2023-01-08T07:42:54.768Z,79.33
2023-01-08T07:43:55.562Z,79.22
2023-01-08T07:44:56.392Z,78.95
2023-01-08T07:45:57.219Z,79.58
2023-01-08T07:46:58.050Z,79.93
2023-01-08T07:47:58.921Z,80.13
2023-01-08T07:48:59.701Z,80.13
2023-01-08T07:50:00.532Z,80.27
2023-01-08T07:51:01.344Z,80.49
2023-01-08T07:52:02.172Z,80.69
2023-01-08T07:53:02.994Z,81.04
2023-01-08T07:54:03.839Z,81.36
2023-01-08T07:55:04.649Z,81.57
2023-01-08T07:56:05.505Z,81.78
2023-01-08T07:57:06.315Z,82.13
2023-01-08T07:58:07.259Z,82.13
2023-01-08T07:59:08.040Z,82.23
2023-01-08T08:00:08.867Z,82.45
2023-01-08T08:01:09.792Z,82.86
2023-01-08T08:02:10.751Z,82.86
2023-01-08T08:03:11.204Z,82.97
2023-01-08T08:04:12.039Z,83.07
2023-01-08T08:05:12.859Z,82.97
2023-01-08T08:06:13.687Z,83.07
2023-01-08T08:07:14.519Z,82.97
2023-01-08T08:08:15.336Z,82.97
2023-01-08T08:09:16.172Z,83.07
2023-01-08T08:10:17.005Z,83.18
2023-01-08T08:11:17.820Z,83.18
2023-01-08T08:12:18.647Z,83.18
2023-01-08T08:13:19.597Z,83.28
2023-01-08T08:14:20.376Z,83.39
2023-01-08T08:15:21.215Z,83.59
2023-01-08T08:16:22.109Z,83.81
2023-01-08T08:17:22.930Z,84.12
2023-01-08T08:18:23.760Z,84.64
2023-01-08T08:19:24.587Z,84.75
2023-01-08T08:20:25.422Z,84.44
2023-01-08T08:21:26.246Z,84.12
2023-01-08T08:22:27.092Z,84.33
2023-01-08T08:23:27.897Z,84.33
2023-01-08T08:24:28.747Z,84.44
2023-01-08T08:25:29.582Z,84.44
2023-01-08T08:26:30.396Z,84.54
2023-01-08T08:27:31.227Z,84.54
2023-01-08T08:28:32.165Z,84.33
2023-01-08T08:29:32.924Z,84.44
2023-01-08T08:30:33.773Z,84.44
2023-01-08T08:31:34.651Z,84.54
2023-01-08T08:32:35.474Z,84.54
2023-01-08T08:33:36.300Z,84.64
2023-01-08T08:34:37.129Z,84.85
2023-01-08T08:35:37.956Z,84.75
2023-01-08T08:36:38.778Z,84.64
2023-01-08T08:37:39.608Z,84.75
2023-01-08T08:38:40.422Z,85.06
2023-01-08T08:39:41.271Z,85.34
2023-01-08T08:40:42.091Z,84.92
2023-01-08T08:41:42.921Z,84.61
2023-01-08T08:42:43.739Z,84.39
2023-01-08T08:43:44.686Z,84.08
2023-01-08T08:44:45.458Z,84.39
2023-01-08T08:45:46.284Z,84.39
2023-01-08T08:46:47.211Z,84.75
2023-01-08T08:47:48.036Z,84.85
2023-01-08T08:48:48.862Z,84.64
2023-01-08T08:49:49.688Z,84.44
2023-01-08T08:50:50.517Z,84.22
2023-01-08T08:51:51.340Z,84.33
2023-01-08T08:52:52.156Z,84.75
2023-01-08T08:53:52.983Z,85.06
2023-01-08T08:54:53.815Z,84.85
2023-01-08T08:55:54.645Z,84.75
2023-01-08T08:56:55.468Z,84.96
2023-01-08T08:57:56.324Z,85.06
2023-01-08T08:58:57.230Z,85.06
2023-01-08T08:59:59.791Z,84.96
2023-01-08T09:00:58.751Z,84.85
2023-01-08T09:01:59.739Z,85.06
2023-01-08T09:03:00.753Z,85.24
2023-01-08T09:04:01.097Z,85.24
2023-01-08T09:05:01.936Z,85.55
2023-01-08T09:06:02.766Z,85.75
2023-01-08T09:07:03.590Z,85.65
2023-01-08T09:08:04.415Z,85.55
2023-01-08T09:09:05.232Z,85.55
2023-01-08T09:10:06.078Z,85.97
2023-01-08T09:11:06.890Z,86.07
2023-01-08T09:12:07.767Z,85.86
2023-01-08T09:13:08.557Z,85.55
2023-01-08T09:14:09.515Z,85.55
2023-01-08T09:15:10.298Z,85.86
2023-01-08T09:16:11.153Z,85.86
2023-01-08T09:17:11.943Z,86.07
2023-01-08T09:18:14.181Z,86.18
2023-01-08T09:19:13.600Z,86.18
2023-01-08T09:20:14.453Z,86.18
2023-01-08T09:21:15.276Z,85.97
2023-01-08T09:22:16.097Z,85.51
2023-01-08T09:23:16.927Z,85.41
2023-01-08T09:24:17.748Z,85.72
2023-01-08T09:25:18.590Z,85.93
2023-01-08T09:26:19.417Z,85.51
2023-01-08T09:27:20.233Z,85.89
2023-01-08T09:28:21.064Z,86.10
2023-01-08T09:29:21.987Z,86.20
2023-01-08T09:30:22.761Z,86.90
2023-01-08T09:31:23.643Z,87.10
2023-01-08T09:32:24.445Z,86.69
2023-01-08T09:33:25.264Z,86.02
2023-01-08T09:34:26.091Z,85.60
2023-01-08T09:35:26.932Z,85.91
2023-01-08T09:36:27.759Z,86.02
2023-01-08T09:37:28.590Z,86.92
2023-01-08T09:38:30.054Z,86.92
2023-01-08T09:39:29.968Z,86.71
2023-01-08T09:40:30.797Z,86.57
2023-01-08T09:41:31.634Z,87.19
2023-01-08T09:42:32.469Z,87.82
2023-01-08T09:43:33.282Z,87.61
2023-01-08T09:44:34.227Z,87.26
2023-01-08T09:45:34.990Z,87.05
2023-01-08T09:46:35.946Z,86.63
2023-01-08T09:47:36.757Z,86.11
2023-01-08T09:48:37.587Z,86.32
2023-01-08T09:49:38.407Z,86.63
2023-01-08T09:50:39.242Z,86.91
2023-01-08T09:51:40.068Z,86.91
2023-01-08T09:52:43.524Z,86.49
2023-01-08T09:53:41.513Z,85.65
2023-01-08T09:54:42.354Z,85.24
2023-01-08T09:55:43.172Z,84.88
2023-01-08T09:56:43.997Z,84.67
2023-01-08T09:57:44.814Z,84.57
2023-01-08T09:58:45.640Z,84.47
2023-01-08T09:59:46.594Z,83.74
2023-01-08T10:00:47.386Z,82.70
2023-01-08T10:01:48.335Z,82.59
2023-01-08T10:02:48.779Z,82.90
2023-01-08T10:03:49.608Z,82.87
2023-01-08T10:04:51.793Z,82.87
2023-01-08T10:05:51.365Z,82.76
2023-01-08T10:06:52.192Z,82.24
2023-01-08T10:07:53.037Z,81.72
2023-01-08T10:08:53.861Z,81.93
2023-01-08T10:09:54.723Z,82.24
2023-01-08T10:10:55.529Z,82.45
2023-01-08T10:11:56.359Z,82.55
2023-01-08T10:12:57.189Z,82.76
2023-01-08T10:13:57.996Z,82.97
2023-01-08T10:14:58.952Z,82.87
2023-01-08T10:15:59.737Z,82.41
2023-01-08T10:17:00.540Z,82.10
2023-01-08T10:18:01.372Z,81.68
2023-01-08T10:19:02.199Z,81.37
2023-01-08T10:20:03.044Z,81.58
2023-01-08T10:21:03.856Z,81.68
2023-01-08T10:22:04.676Z,82.51
2023-01-08T10:23:05.507Z,82.48
2023-01-08T10:24:06.324Z,82.37
2023-01-08T10:25:07.163Z,81.85
2023-01-08T10:26:07.980Z,80.98
2023-01-08T10:27:08.830Z,80.98
2023-01-08T10:28:09.650Z,80.57
2023-01-08T10:29:10.456Z,80.57
2023-01-08T10:30:11.307Z,80.32
2023-01-08T10:31:12.128Z,79.69
2023-01-08T10:32:12.929Z,78.66
2023-01-08T10:33:13.786Z,79.14
2023-01-08T10:34:14.580Z,79.76
2023-01-08T10:35:15.418Z,79.35
2023-01-08T10:36:16.239Z,79.31
2023-01-08T10:37:17.083Z,78.27
2023-01-08T10:38:17.895Z,77.55
2023-01-08T10:39:18.725Z,76.92
2023-01-08T10:40:19.552Z,76.78
2023-01-08T10:41:20.383Z,76.37
2023-01-08T10:42:21.202Z,76.37
2023-01-08T10:43:22.030Z,76.78
2023-01-08T10:44:22.861Z,77.37
2023-01-08T10:45:23.816Z,76.33
2023-01-08T10:46:24.589Z,75.92
2023-01-08T10:47:25.427Z,75.19
2023-01-08T10:48:26.247Z,75.60
2023-01-08T10:49:27.132Z,75.19
2023-01-08T10:50:27.918Z,75.09
2023-01-08T10:51:28.758Z,75.36
2023-01-08T10:52:29.574Z,74.74
2023-01-08T10:53:30.402Z,74.43
2023-01-08T10:54:31.221Z,75.15
2023-01-08T10:55:32.060Z,75.05
2023-01-08T10:56:32.878Z,75.67
2023-01-08T10:57:33.720Z,76.23
2023-01-08T10:58:34.544Z,76.54
2023-01-08T10:59:35.375Z,76.64
2023-01-08T11:00:36.269Z,76.33
2023-01-08T11:01:37.198Z,75.71
2023-01-08T11:02:39.200Z,74.67
2023-01-08T11:03:38.774Z,74.67
2023-01-08T11:04:39.592Z,74.46
2023-01-08T11:05:40.441Z,74.98
2023-01-08T11:06:41.260Z,75.74
2023-01-08T11:07:42.078Z,76.06
2023-01-08T11:08:42.900Z,76.26
2023-01-08T11:09:43.730Z,76.26
2023-01-08T11:10:44.567Z,76.26
2023-01-08T11:11:45.386Z,75.32
2023-01-08T11:12:46.211Z,75.64
2023-01-08T11:13:47.032Z,75.54
2023-01-08T11:14:47.851Z,75.74
2023-01-08T11:15:48.714Z,76.16
2023-01-08T11:16:49.509Z,76.68
2023-01-08T11:17:50.345Z,76.78
2023-01-08T11:18:51.170Z,76.26
2023-01-08T11:19:51.997Z,75.95
2023-01-08T11:20:52.827Z,75.40
2023-01-08T11:21:53.652Z,75.09
2023-01-08T11:22:54.472Z,74.36
2023-01-08T11:23:55.303Z,74.36
2023-01-08T11:24:56.117Z,74.67
2023-01-08T11:25:56.964Z,75.01
2023-01-08T11:26:57.806Z,74.36
2023-01-08T11:27:58.609Z,74.36
2023-01-08T11:28:59.429Z,74.26
2023-01-08T11:30:00.251Z,73.94
2023-01-08T11:31:01.200Z,73.11
2023-01-08T11:32:01.969Z,72.59
2023-01-08T11:33:02.786Z,72.17
2023-01-08T11:34:03.617Z,72.49
2023-01-08T11:35:04.449Z,73.00
2023-01-08T11:36:05.273Z,71.97
2023-01-08T11:37:06.124Z,71.55
2023-01-08T11:38:06.957Z,71.62
2023-01-08T11:39:07.760Z,72.56
2023-01-08T11:40:08.588Z,72.77
2023-01-08T11:41:09.419Z,72.97
2023-01-08T11:42:10.261Z,73.80
2023-01-08T11:43:11.066Z,74.11
2023-01-08T11:44:11.893Z,73.70
2023-01-08T11:45:12.716Z,73.08
2023-01-08T11:46:13.680Z,73.49
2023-01-08T11:47:14.471Z,72.84
2023-01-08T11:48:15.280Z,73.08
2023-01-08T11:49:16.099Z,72.97
2023-01-08T11:50:16.931Z,73.28
2023-01-08T11:51:17.757Z,73.49
2023-01-08T11:52:18.587Z,73.67
2023-01-08T11:53:19.426Z,73.36
2023-01-08T11:54:20.241Z,72.11
2023-01-08T11:55:21.066Z,72.11
2023-01-08T11:56:21.911Z,71.08
2023-01-08T11:57:22.732Z,71.18
2023-01-08T11:58:23.563Z,71.52
2023-01-08T11:59:24.384Z,72.11
2023-01-08T12:00:25.213Z,70.79
2023-01-08T12:01:26.131Z,71.11
2023-01-08T12:02:26.930Z,71.31
2023-01-08T12:03:27.818Z,70.69
2023-01-08T12:04:28.587Z,71.00
2023-01-08T12:05:29.407Z,70.59
2023-01-08T12:06:30.247Z,71.00
2023-01-08T12:07:31.076Z,71.62
2023-01-08T12:08:31.903Z,71.94
2023-01-08T12:09:32.746Z,71.31
2023-01-08T12:10:33.560Z,71.94
2023-01-08T12:11:34.390Z,72.04
2023-01-08T12:12:35.218Z,72.04
2023-01-08T12:13:36.041Z,71.83
2023-01-08T12:14:36.864Z,71.86
2023-01-08T12:15:37.695Z,72.17
2023-01-08T12:16:38.647Z,71.76
2023-01-08T12:17:39.435Z,72.07
2023-01-08T12:18:40.255Z,71.55
2023-01-08T12:19:41.076Z,71.34
2023-01-08T12:20:41.899Z,71.55
2023-01-08T12:21:42.735Z,71.55
2023-01-08T12:22:43.558Z,72.07
2023-01-08T12:23:44.380Z,71.66
2023-01-08T12:24:45.209Z,71.97
2023-01-08T12:25:46.031Z,72.38
2023-01-08T12:26:46.866Z,71.14
2023-01-08T12:27:56.791Z,71.14
2023-01-08T12:28:49.396Z,71.45
2023-01-08T12:29:49.229Z,72.28
2023-01-08T12:30:50.052Z,72.69
2023-01-08T12:32:01.551Z,72.69
2023-01-08T12:32:52.603Z,72.59
2023-01-08T12:33:52.421Z,72.80
2023-01-08T12:34:53.257Z,72.38
2023-01-08T12:35:54.079Z,72.90
2023-01-08T12:36:54.923Z,73.00
2023-01-08T12:37:55.757Z,72.80
2023-01-08T12:38:56.571Z,72.69
2023-01-08T12:39:57.406Z,71.86
2023-01-08T12:40:58.229Z,71.76
2023-01-08T12:41:59.059Z,71.14
2023-01-08T12:43:01.399Z,70.93
2023-01-08T12:44:00.644Z,71.24
2023-01-08T12:45:01.461Z,71.03
2023-01-08T12:46:02.381Z,72.07
2023-01-08T12:47:03.202Z,72.17
2023-01-08T12:48:04.004Z,72.59
2023-01-08T12:49:04.823Z,72.07
2023-01-08T12:50:05.651Z,72.17
2023-01-08T12:51:06.481Z,72.28
2023-01-08T12:52:07.339Z,72.38
2023-01-08T12:53:08.149Z,71.76
2023-01-08T12:54:08.986Z,71.86
2023-01-08T12:55:09.793Z,72.07
2023-01-08T12:56:10.624Z,72.28
2023-01-08T12:57:11.458Z,71.03
2023-01-08T12:58:12.280Z,71.34
2023-01-08T12:59:13.095Z,71.76
2023-01-08T13:00:13.924Z,71.14
2023-01-08T13:01:14.813Z,70.62
2023-01-08T13:02:15.730Z,71.03
2023-01-08T13:03:16.565Z,71.03